sensor_id;sensor_type;location;lat;lon;timestamp;P1;durP1;ratioP1;P2;durP2;ratioP2
11490;SDS011;5802;52.832;4.758;2022-10-04T00:00:46;1.55;;;0.70;;
11490;SDS011;5802;52.832;4.758;2022-10-04T00:03:17;0.75;;;0.60;;
11490;SDS011;5802;52.832;4.758;2022-10-04T00:05:51;0.88;;;0.70;;
11490;SDS011;5802;52.832;4.758;2022-10-04T00:08:23;0.77;;;0.50;;
11490;SDS011;5802;52.832;4.758;2022-10-04T00:11:00;0.60;;;0.50;;
11490;SDS011;5802;52.832;4.758;2022-10-04T00:13:30;0.45;;;0.45;;
11490;SDS011;5802;52.832;4.758;2022-10-04T00:15:58;0.70;;;0.60;;
11490;SDS011;5802;52.832;4.758;2022-10-04T00:18:27;0.85;;;0.57;;
11490;SDS011;5802;52.832;4.758;2022-10-04T00:20:58;0.30;;;0.30;;
11490;SDS011;5802;52.832;4.758;2022-10-04T00:23:40;1.27;;;0.60;;
11490;SDS011;5802;52.832;4.758;2022-10-04T00:26:13;1.25;;;0.70;;
11490;SDS011;5802;52.832;4.758;2022-10-04T00:34:50;0.70;;;0.50;;
11490;SDS011;5802;52.832;4.758;2022-10-04T00:37:18;0.60;;;0.55;;
11490;SDS011;5802;52.832;4.758;2022-10-04T00:39:47;0.50;;;0.50;;
11490;SDS011;5802;52.832;4.758;2022-10-04T00:42:31;0.82;;;0.60;;
11490;SDS011;5802;52.832;4.758;2022-10-04T00:45:03;0.93;;;0.65;;
11490;SDS011;5802;52.832;4.758;2022-10-04T00:47:39;0.40;;;0.32;;
11490;SDS011;5802;52.832;4.758;2022-10-04T00:50:24;1.42;;;0.70;;
11490;SDS011;5802;52.832;4.758;2022-10-04T00:52:56;0.60;;;0.50;;
11490;SDS011;5802;52.832;4.758;2022-10-04T00:55:28;0.80;;;0.60;;
11490;SDS011;5802;52.832;4.758;2022-10-04T00:57:59;0.80;;;0.60;;
11490;SDS011;5802;52.832;4.758;2022-10-04T01:00:30;1.02;;;0.60;;
11490;SDS011;5802;52.832;4.758;2022-10-04T01:02:58;0.77;;;0.57;;
11490;SDS011;5802;52.832;4.758;2022-10-04T01:05:28;0.77;;;0.57;;
11490;SDS011;5802;52.832;4.758;2022-10-04T01:08:02;0.77;;;0.45;;
11490;SDS011;5802;52.832;4.758;2022-10-04T01:10:35;0.65;;;0.52;;
11490;SDS011;5802;52.832;4.758;2022-10-04T01:13:11;0.75;;;0.50;;
11490;SDS011;5802;52.832;4.758;2022-10-04T01:15:41;1.10;;;0.70;;
11490;SDS011;5802;52.832;4.758;2022-10-04T01:18:14;0.73;;;0.60;;
11490;SDS011;5802;52.832;4.758;2022-10-04T01:20:53;0.70;;;0.60;;
11490;SDS011;5802;52.832;4.758;2022-10-04T01:23:35;0.55;;;0.55;;
11490;SDS011;5802;52.832;4.758;2022-10-04T01:26:05;0.95;;;0.70;;
11490;SDS011;5802;52.832;4.758;2022-10-04T01:28:47;0.50;;;0.40;;
11490;SDS011;5802;52.832;4.758;2022-10-04T01:31:14;0.45;;;0.45;;
11490;SDS011;5802;52.832;4.758;2022-10-04T01:33:40;1.25;;;0.60;;
11490;SDS011;5802;52.832;4.758;2022-10-04T01:36:07;0.57;;;0.55;;
11490;SDS011;5802;52.832;4.758;2022-10-04T01:38:35;0.63;;;0.63;;
11490;SDS011;5802;52.832;4.758;2022-10-04T01:41:02;0.70;;;0.60;;
11490;SDS011;5802;52.832;4.758;2022-10-04T01:43:31;1.00;;;0.60;;
11490;SDS011;5802;52.832;4.758;2022-10-04T01:46:03;0.60;;;0.50;;
11490;SDS011;5802;52.832;4.758;2022-10-04T01:48:35;0.73;;;0.50;;
11490;SDS011;5802;52.832;4.758;2022-10-04T01:51:04;0.80;;;0.52;;
11490;SDS011;5802;52.832;4.758;2022-10-04T01:53:40;0.47;;;0.47;;
11490;SDS011;5802;52.832;4.758;2022-10-04T01:56:13;0.73;;;0.60;;
11490;SDS011;5802;52.832;4.758;2022-10-04T01:58:44;0.47;;;0.47;;
11490;SDS011;5802;52.832;4.758;2022-10-04T02:01:14;0.80;;;0.60;;
11490;SDS011;5802;52.832;4.758;2022-10-04T02:03:50;0.75;;;0.50;;
11490;SDS011;5802;52.832;4.758;2022-10-04T02:06:20;2.17;;;0.77;;
11490;SDS011;5802;52.832;4.758;2022-10-04T02:08:50;1.83;;;0.63;;
11490;SDS011;5802;52.832;4.758;2022-10-04T02:11:21;0.50;;;0.50;;
11490;SDS011;5802;52.832;4.758;2022-10-04T02:13:50;0.90;;;0.70;;
11490;SDS011;5802;52.832;4.758;2022-10-04T02:16:20;1.20;;;0.60;;
11490;SDS011;5802;52.832;4.758;2022-10-04T02:18:48;0.82;;;0.70;;
11490;SDS011;5802;52.832;4.758;2022-10-04T02:21:16;0.90;;;0.70;;
11490;SDS011;5802;52.832;4.758;2022-10-04T02:23:45;0.82;;;0.50;;
11490;SDS011;5802;52.832;4.758;2022-10-04T02:26:14;1.02;;;0.68;;
11490;SDS011;5802;52.832;4.758;2022-10-04T02:28:40;1.08;;;0.65;;
11490;SDS011;5802;52.832;4.758;2022-10-04T02:31:07;0.63;;;0.57;;
11490;SDS011;5802;52.832;4.758;2022-10-04T02:33:54;1.38;;;0.50;;
11490;SDS011;5802;52.832;4.758;2022-10-04T02:36:24;0.80;;;0.77;;
11490;SDS011;5802;52.832;4.758;2022-10-04T02:38:54;0.65;;;0.60;;
11490;SDS011;5802;52.832;4.758;2022-10-04T02:41:27;0.70;;;0.60;;
11490;SDS011;5802;52.832;4.758;2022-10-04T02:43:58;1.08;;;0.70;;
11490;SDS011;5802;52.832;4.758;2022-10-04T02:46:31;1.05;;;0.60;;
11490;SDS011;5802;52.832;4.758;2022-10-04T02:49:03;0.60;;;0.60;;
11490;SDS011;5802;52.832;4.758;2022-10-04T02:51:37;0.57;;;0.57;;
11490;SDS011;5802;52.832;4.758;2022-10-04T02:54:09;1.17;;;0.75;;
11490;SDS011;5802;52.832;4.758;2022-10-04T02:56:48;1.70;;;0.77;;
11490;SDS011;5802;52.832;4.758;2022-10-04T02:59:17;0.75;;;0.60;;
11490;SDS011;5802;52.832;4.758;2022-10-04T03:01:47;0.98;;;0.80;;
11490;SDS011;5802;52.832;4.758;2022-10-04T03:04:17;0.60;;;0.50;;
11490;SDS011;5802;52.832;4.758;2022-10-04T03:06:47;0.88;;;0.73;;
11490;SDS011;5802;52.832;4.758;2022-10-04T03:09:15;0.65;;;0.65;;
11490;SDS011;5802;52.832;4.758;2022-10-04T03:11:45;1.50;;;0.63;;
11490;SDS011;5802;52.832;4.758;2022-10-04T03:14:15;0.60;;;0.47;;
11490;SDS011;5802;52.832;4.758;2022-10-04T03:16:45;0.75;;;0.60;;
11490;SDS011;5802;52.832;4.758;2022-10-04T03:19:14;0.80;;;0.80;;
11490;SDS011;5802;52.832;4.758;2022-10-04T03:21:43;0.80;;;0.80;;
11490;SDS011;5802;52.832;4.758;2022-10-04T03:24:14;1.50;;;0.75;;
11490;SDS011;5802;52.832;4.758;2022-10-04T03:26:46;0.90;;;0.77;;
11490;SDS011;5802;52.832;4.758;2022-10-04T03:29:16;0.82;;;0.70;;
11490;SDS011;5802;52.832;4.758;2022-10-04T03:31:44;0.70;;;0.60;;
11490;SDS011;5802;52.832;4.758;2022-10-04T03:34:13;0.60;;;0.60;;
11490;SDS011;5802;52.832;4.758;2022-10-04T03:36:42;0.73;;;0.60;;
11490;SDS011;5802;52.832;4.758;2022-10-04T03:39:11;0.70;;;0.50;;
11490;SDS011;5802;52.832;4.758;2022-10-04T03:41:43;0.60;;;0.60;;
11490;SDS011;5802;52.832;4.758;2022-10-04T03:44:13;1.15;;;0.60;;
11490;SDS011;5802;52.832;4.758;2022-10-04T03:46:42;0.90;;;0.75;;
11490;SDS011;5802;52.832;4.758;2022-10-04T03:49:09;0.80;;;0.60;;
11490;SDS011;5802;52.832;4.758;2022-10-04T03:51:42;0.60;;;0.60;;
11490;SDS011;5802;52.832;4.758;2022-10-04T03:54:11;1.33;;;0.60;;
11490;SDS011;5802;52.832;4.758;2022-10-04T03:56:44;0.70;;;0.70;;
11490;SDS011;5802;52.832;4.758;2022-10-04T03:59:13;0.60;;;0.60;;
11490;SDS011;5802;52.832;4.758;2022-10-04T04:01:43;0.52;;;0.50;;
11490;SDS011;5802;52.832;4.758;2022-10-04T04:04:17;0.73;;;0.60;;
11490;SDS011;5802;52.832;4.758;2022-10-04T04:06:51;0.80;;;0.70;;
11490;SDS011;5802;52.832;4.758;2022-10-04T04:09:29;0.70;;;0.60;;
11490;SDS011;5802;52.832;4.758;2022-10-04T04:12:05;0.73;;;0.60;;
11490;SDS011;5802;52.832;4.758;2022-10-04T04:14:38;0.57;;;0.55;;
11490;SDS011;5802;52.832;4.758;2022-10-04T04:17:17;0.93;;;0.70;;
11490;SDS011;5802;52.832;4.758;2022-10-04T04:19:56;1.05;;;0.60;;
11490;SDS011;5802;52.832;4.758;2022-10-04T04:22:24;0.70;;;0.70;;
11490;SDS011;5802;52.832;4.758;2022-10-04T04:24:55;1.30;;;0.70;;
11490;SDS011;5802;52.832;4.758;2022-10-04T04:27:25;0.60;;;0.60;;
11490;SDS011;5802;52.832;4.758;2022-10-04T04:29:53;1.88;;;0.65;;
11490;SDS011;5802;52.832;4.758;2022-10-04T04:32:21;0.90;;;0.85;;
11490;SDS011;5802;52.832;4.758;2022-10-04T04:34:52;0.75;;;0.75;;
11490;SDS011;5802;52.832;4.758;2022-10-04T04:37:22;0.68;;;0.68;;
11490;SDS011;5802;52.832;4.758;2022-10-04T04:39:50;1.00;;;0.77;;
11490;SDS011;5802;52.832;4.758;2022-10-04T04:42:20;0.90;;;0.63;;
11490;SDS011;5802;52.832;4.758;2022-10-04T04:44:54;1.17;;;0.70;;
11490;SDS011;5802;52.832;4.758;2022-10-04T04:47:28;0.90;;;0.70;;
11490;SDS011;5802;52.832;4.758;2022-10-04T04:50:00;1.38;;;0.80;;
11490;SDS011;5802;52.832;4.758;2022-10-04T04:52:33;0.98;;;0.80;;
11490;SDS011;5802;52.832;4.758;2022-10-04T04:55:00;0.80;;;0.77;;
11490;SDS011;5802;52.832;4.758;2022-10-04T04:57:28;0.85;;;0.63;;
11490;SDS011;5802;52.832;4.758;2022-10-04T04:59:59;0.75;;;0.65;;
11490;SDS011;5802;52.832;4.758;2022-10-04T05:02:27;1.00;;;0.65;;
11490;SDS011;5802;52.832;4.758;2022-10-04T05:05:18;0.73;;;0.70;;
11490;SDS011;5802;52.832;4.758;2022-10-04T05:07:47;1.05;;;0.60;;
11490;SDS011;5802;52.832;4.758;2022-10-04T05:10:18;1.40;;;0.80;;
11490;SDS011;5802;52.832;4.758;2022-10-04T05:12:46;0.90;;;0.80;;
11490;SDS011;5802;52.832;4.758;2022-10-04T05:15:15;0.65;;;0.50;;
11490;SDS011;5802;52.832;4.758;2022-10-04T05:17:43;2.38;;;0.70;;
11490;SDS011;5802;52.832;4.758;2022-10-04T05:20:10;0.82;;;0.70;;
11490;SDS011;5802;52.832;4.758;2022-10-04T05:22:39;0.90;;;0.70;;
11490;SDS011;5802;52.832;4.758;2022-10-04T05:25:12;0.93;;;0.80;;
11490;SDS011;5802;52.832;4.758;2022-10-04T05:27:42;1.67;;;0.63;;
11490;SDS011;5802;52.832;4.758;2022-10-04T05:30:12;1.13;;;0.70;;
11490;SDS011;5802;52.832;4.758;2022-10-04T05:32:49;1.05;;;0.80;;
11490;SDS011;5802;52.832;4.758;2022-10-04T05:35:25;1.08;;;0.65;;
11490;SDS011;5802;52.832;4.758;2022-10-04T05:38:02;0.73;;;0.60;;
11490;SDS011;5802;52.832;4.758;2022-10-04T05:40:36;1.00;;;0.70;;
11490;SDS011;5802;52.832;4.758;2022-10-04T05:48:52;0.77;;;0.70;;
11490;SDS011;5802;52.832;4.758;2022-10-04T05:51:21;1.10;;;0.70;;
11490;SDS011;5802;52.832;4.758;2022-10-04T05:53:49;0.95;;;0.70;;
11490;SDS011;5802;52.832;4.758;2022-10-04T05:56:24;0.82;;;0.70;;
11490;SDS011;5802;52.832;4.758;2022-10-04T05:59:10;0.90;;;0.80;;
11490;SDS011;5802;52.832;4.758;2022-10-04T06:01:51;0.70;;;0.70;;
11490;SDS011;5802;52.832;4.758;2022-10-04T06:04:30;0.90;;;0.80;;
11490;SDS011;5802;52.832;4.758;2022-10-04T06:07:14;0.60;;;0.55;;
11490;SDS011;5802;52.832;4.758;2022-10-04T06:09:55;0.90;;;0.68;;
11490;SDS011;5802;52.832;4.758;2022-10-04T06:12:35;0.93;;;0.70;;
11490;SDS011;5802;52.832;4.758;2022-10-04T06:15:16;1.58;;;0.95;;
11490;SDS011;5802;52.832;4.758;2022-10-04T06:18:08;0.60;;;0.60;;
11490;SDS011;5802;52.832;4.758;2022-10-04T06:20:52;1.02;;;0.70;;
11490;SDS011;5802;52.832;4.758;2022-10-04T06:23:28;2.55;;;1.00;;
11490;SDS011;5802;52.832;4.758;2022-10-04T06:26:00;0.73;;;0.63;;
11490;SDS011;5802;52.832;4.758;2022-10-04T06:28:32;0.70;;;0.70;;
11490;SDS011;5802;52.832;4.758;2022-10-04T06:33:58;0.70;;;0.70;;
11490;SDS011;5802;52.832;4.758;2022-10-04T06:36:42;0.93;;;0.80;;
11490;SDS011;5802;52.832;4.758;2022-10-04T06:39:29;0.80;;;0.80;;
11490;SDS011;5802;52.832;4.758;2022-10-04T06:42:19;0.65;;;0.63;;
11490;SDS011;5802;52.832;4.758;2022-10-04T06:45:19;1.63;;;0.82;;
11490;SDS011;5802;52.832;4.758;2022-10-04T06:51:09;0.70;;;0.70;;
11490;SDS011;5802;52.832;4.758;2022-10-04T06:53:49;1.23;;;0.70;;
11490;SDS011;5802;52.832;4.758;2022-10-04T06:56:36;0.90;;;0.80;;
11490;SDS011;5802;52.832;4.758;2022-10-04T06:59:25;0.73;;;0.68;;
11490;SDS011;5802;52.832;4.758;2022-10-04T07:02:11;0.80;;;0.70;;
11490;SDS011;5802;52.832;4.758;2022-10-04T07:04:41;0.70;;;0.70;;
11490;SDS011;5802;52.832;4.758;2022-10-04T07:07:19;0.90;;;0.80;;
11490;SDS011;5802;52.832;4.758;2022-10-04T07:09:51;0.80;;;0.80;;
11490;SDS011;5802;52.832;4.758;2022-10-04T07:12:26;0.90;;;0.73;;
11490;SDS011;5802;52.832;4.758;2022-10-04T07:14:54;1.13;;;0.80;;
11490;SDS011;5802;52.832;4.758;2022-10-04T07:17:26;0.95;;;0.88;;
11490;SDS011;5802;52.832;4.758;2022-10-04T07:19:57;0.93;;;0.75;;
11490;SDS011;5802;52.832;4.758;2022-10-04T07:22:28;1.00;;;0.75;;
11490;SDS011;5802;52.832;4.758;2022-10-04T07:25:03;0.73;;;0.60;;
11490;SDS011;5802;52.832;4.758;2022-10-04T07:27:41;0.80;;;0.80;;
11490;SDS011;5802;52.832;4.758;2022-10-04T07:30:13;1.20;;;0.90;;
11490;SDS011;5802;52.832;4.758;2022-10-04T07:32:43;0.85;;;0.70;;
11490;SDS011;5802;52.832;4.758;2022-10-04T07:35:15;0.80;;;0.80;;
11490;SDS011;5802;52.832;4.758;2022-10-04T07:37:59;1.00;;;0.90;;
11490;SDS011;5802;52.832;4.758;2022-10-04T07:40:35;0.80;;;0.70;;
11490;SDS011;5802;52.832;4.758;2022-10-04T07:43:05;0.95;;;0.70;;
11490;SDS011;5802;52.832;4.758;2022-10-04T07:45:36;1.00;;;0.90;;
11490;SDS011;5802;52.832;4.758;2022-10-04T07:48:09;1.08;;;0.80;;
11490;SDS011;5802;52.832;4.758;2022-10-04T07:50:39;0.85;;;0.70;;
11490;SDS011;5802;52.832;4.758;2022-10-04T07:53:15;0.80;;;0.70;;
11490;SDS011;5802;52.832;4.758;2022-10-04T07:55:48;1.60;;;1.00;;
11490;SDS011;5802;52.832;4.758;2022-10-04T07:58:24;0.82;;;0.73;;
11490;SDS011;5802;52.832;4.758;2022-10-04T08:01:08;1.08;;;0.98;;
11490;SDS011;5802;52.832;4.758;2022-10-04T08:03:59;0.73;;;0.73;;
11490;SDS011;5802;52.832;4.758;2022-10-04T08:06:51;1.10;;;0.90;;
11490;SDS011;5802;52.832;4.758;2022-10-04T08:12:22;0.90;;;0.70;;
11490;SDS011;5802;52.832;4.758;2022-10-04T08:14:54;0.70;;;0.70;;
11490;SDS011;5802;52.832;4.758;2022-10-04T08:17:39;1.27;;;0.90;;
11490;SDS011;5802;52.832;4.758;2022-10-04T08:20:29;0.95;;;0.85;;
11490;SDS011;5802;52.832;4.758;2022-10-04T08:23:05;1.20;;;1.00;;
11490;SDS011;5802;52.832;4.758;2022-10-04T08:25:48;1.40;;;0.90;;
11490;SDS011;5802;52.832;4.758;2022-10-04T08:28:25;1.27;;;0.90;;
11490;SDS011;5802;52.832;4.758;2022-10-04T08:31:22;1.15;;;0.90;;
11490;SDS011;5802;52.832;4.758;2022-10-04T08:34:01;0.70;;;0.70;;
11490;SDS011;5802;52.832;4.758;2022-10-04T08:36:44;1.13;;;0.80;;
11490;SDS011;5802;52.832;4.758;2022-10-04T08:39:27;0.80;;;0.70;;
11490;SDS011;5802;52.832;4.758;2022-10-04T08:42:23;1.00;;;0.70;;
11490;SDS011;5802;52.832;4.758;2022-10-04T08:45:19;0.70;;;0.70;;
11490;SDS011;5802;52.832;4.758;2022-10-04T08:48:21;1.00;;;0.80;;
11490;SDS011;5802;52.832;4.758;2022-10-04T08:51:25;1.00;;;0.90;;
11490;SDS011;5802;52.832;4.758;2022-10-04T09:00:27;1.42;;;0.93;;
11490;SDS011;5802;52.832;4.758;2022-10-04T09:03:14;0.88;;;0.73;;
11490;SDS011;5802;52.832;4.758;2022-10-04T09:06:07;1.83;;;0.90;;
11490;SDS011;5802;52.832;4.758;2022-10-04T09:09:03;0.82;;;0.77;;
11490;SDS011;5802;52.832;4.758;2022-10-04T09:11:57;0.80;;;0.80;;
11490;SDS011;5802;52.832;4.758;2022-10-04T09:14:53;0.95;;;0.80;;
11490;SDS011;5802;52.832;4.758;2022-10-04T09:17:36;1.08;;;0.98;;
11490;SDS011;5802;52.832;4.758;2022-10-04T09:20:17;0.60;;;0.60;;
11490;SDS011;5802;52.832;4.758;2022-10-04T09:22:47;0.68;;;0.60;;
11490;SDS011;5802;52.832;4.758;2022-10-04T09:25:24;0.90;;;0.68;;
11490;SDS011;5802;52.832;4.758;2022-10-04T09:28:14;0.73;;;0.73;;
11490;SDS011;5802;52.832;4.758;2022-10-04T09:30:53;1.33;;;1.00;;
11490;SDS011;5802;52.832;4.758;2022-10-04T09:33:38;1.52;;;1.08;;
11490;SDS011;5802;52.832;4.758;2022-10-04T09:36:26;0.90;;;0.80;;
11490;SDS011;5802;52.832;4.758;2022-10-04T09:39:23;0.70;;;0.70;;
11490;SDS011;5802;52.832;4.758;2022-10-04T09:42:09;1.00;;;0.90;;
11490;SDS011;5802;52.832;4.758;2022-10-04T09:51:07;1.00;;;0.90;;
11490;SDS011;5802;52.832;4.758;2022-10-04T09:56:49;0.95;;;0.85;;
11490;SDS011;5802;52.832;4.758;2022-10-04T09:59:33;1.17;;;1.00;;
11490;SDS011;5802;52.832;4.758;2022-10-04T10:02:23;1.13;;;1.00;;
11490;SDS011;5802;52.832;4.758;2022-10-04T10:05:27;1.00;;;0.85;;
11490;SDS011;5802;52.832;4.758;2022-10-04T10:08:06;0.85;;;0.82;;
11490;SDS011;5802;52.832;4.758;2022-10-04T10:10:40;0.95;;;0.90;;
11490;SDS011;5802;52.832;4.758;2022-10-04T10:16:48;1.33;;;1.05;;
11490;SDS011;5802;52.832;4.758;2022-10-04T10:19:39;1.02;;;0.93;;
11490;SDS011;5802;52.832;4.758;2022-10-04T10:25:21;1.50;;;1.10;;
11490;SDS011;5802;52.832;4.758;2022-10-04T10:28:08;1.92;;;1.17;;
11490;SDS011;5802;52.832;4.758;2022-10-04T10:30:54;1.20;;;1.10;;
11490;SDS011;5802;52.832;4.758;2022-10-04T10:33:33;1.15;;;1.05;;
11490;SDS011;5802;52.832;4.758;2022-10-04T10:36:22;1.23;;;1.13;;
11490;SDS011;5802;52.832;4.758;2022-10-04T10:39:14;1.58;;;1.23;;
11490;SDS011;5802;52.832;4.758;2022-10-04T10:42:11;1.83;;;1.13;;
11490;SDS011;5802;52.832;4.758;2022-10-04T10:44:58;1.52;;;1.15;;
11490;SDS011;5802;52.832;4.758;2022-10-04T10:47:47;1.35;;;1.13;;
11490;SDS011;5802;52.832;4.758;2022-10-04T10:50:38;1.60;;;1.20;;
11490;SDS011;5802;52.832;4.758;2022-10-04T10:59:27;1.20;;;1.10;;
11490;SDS011;5802;52.832;4.758;2022-10-04T11:02:19;1.48;;;1.13;;
11490;SDS011;5802;52.832;4.758;2022-10-04T11:08:24;2.25;;;1.40;;
11490;SDS011;5802;52.832;4.758;2022-10-04T11:11:20;1.58;;;1.20;;
11490;SDS011;5802;52.832;4.758;2022-10-04T11:14:15;1.63;;;1.20;;
11490;SDS011;5802;52.832;4.758;2022-10-04T11:20:15;1.20;;;1.00;;
11490;SDS011;5802;52.832;4.758;2022-10-04T11:26:18;1.50;;;1.10;;
11490;SDS011;5802;52.832;4.758;2022-10-04T11:29:14;1.27;;;1.17;;
11490;SDS011;5802;52.832;4.758;2022-10-04T11:32:02;1.52;;;1.20;;
11490;SDS011;5802;52.832;4.758;2022-10-04T11:37:58;1.67;;;1.30;;
11490;SDS011;5802;52.832;4.758;2022-10-04T11:40:44;1.75;;;1.20;;
11490;SDS011;5802;52.832;4.758;2022-10-04T11:43:30;1.88;;;1.30;;
11490;SDS011;5802;52.832;4.758;2022-10-04T11:46:10;1.20;;;1.10;;
11490;SDS011;5802;52.832;4.758;2022-10-04T11:48:56;1.85;;;1.27;;
11490;SDS011;5802;52.832;4.758;2022-10-04T11:51:44;1.27;;;1.17;;
11490;SDS011;5802;52.832;4.758;2022-10-04T11:54:46;1.27;;;1.10;;
11490;SDS011;5802;52.832;4.758;2022-10-04T11:57:33;1.52;;;1.05;;
11490;SDS011;5802;52.832;4.758;2022-10-04T12:00:08;1.75;;;1.10;;
11490;SDS011;5802;52.832;4.758;2022-10-04T12:08:25;1.20;;;1.08;;
11490;SDS011;5802;52.832;4.758;2022-10-04T12:11:03;1.73;;;1.10;;
11490;SDS011;5802;52.832;4.758;2022-10-04T12:14:14;1.10;;;0.95;;
11490;SDS011;5802;52.832;4.758;2022-10-04T12:16:56;1.98;;;1.30;;
11490;SDS011;5802;52.832;4.758;2022-10-04T12:25:50;1.17;;;1.08;;
11490;SDS011;5802;52.832;4.758;2022-10-04T12:31:46;1.20;;;1.10;;
11490;SDS011;5802;52.832;4.758;2022-10-04T12:34:19;1.90;;;1.17;;
11490;SDS011;5802;52.832;4.758;2022-10-04T12:36:58;1.13;;;1.00;;
11490;SDS011;5802;52.832;4.758;2022-10-04T12:42:34;1.20;;;1.00;;
11490;SDS011;5802;52.832;4.758;2022-10-04T12:45:20;1.15;;;0.90;;
11490;SDS011;5802;52.832;4.758;2022-10-04T12:48:02;1.30;;;0.95;;
11490;SDS011;5802;52.832;4.758;2022-10-04T12:50:51;1.88;;;1.20;;
11490;SDS011;5802;52.832;4.758;2022-10-04T12:53:31;1.15;;;0.90;;
11490;SDS011;5802;52.832;4.758;2022-10-04T12:56:04;1.42;;;1.08;;
11490;SDS011;5802;52.832;4.758;2022-10-04T12:58:39;1.40;;;1.08;;
11490;SDS011;5802;52.832;4.758;2022-10-04T13:01:31;1.20;;;1.10;;
11490;SDS011;5802;52.832;4.758;2022-10-04T13:04:11;1.10;;;1.00;;
11490;SDS011;5802;52.832;4.758;2022-10-04T13:06:53;1.10;;;0.88;;
11490;SDS011;5802;52.832;4.758;2022-10-04T13:09:37;1.35;;;1.05;;
11490;SDS011;5802;52.832;4.758;2022-10-04T13:12:18;1.00;;;0.90;;
11490;SDS011;5802;52.832;4.758;2022-10-04T13:14:55;1.42;;;1.10;;
11490;SDS011;5802;52.832;4.758;2022-10-04T13:17:36;2.50;;;0.93;;
11490;SDS011;5802;52.832;4.758;2022-10-04T13:20:28;1.10;;;1.00;;
11490;SDS011;5802;52.832;4.758;2022-10-04T13:23:05;0.95;;;0.90;;
11490;SDS011;5802;52.832;4.758;2022-10-04T13:25:43;1.23;;;0.82;;
11490;SDS011;5802;52.832;4.758;2022-10-04T13:28:26;1.30;;;1.10;;
11490;SDS011;5802;52.832;4.758;2022-10-04T13:31:00;1.10;;;1.00;;
11490;SDS011;5802;52.832;4.758;2022-10-04T13:33:34;1.48;;;1.00;;
11490;SDS011;5802;52.832;4.758;2022-10-04T13:36:08;1.15;;;1.05;;
11490;SDS011;5802;52.832;4.758;2022-10-04T13:41:40;1.20;;;1.10;;
11490;SDS011;5802;52.832;4.758;2022-10-04T13:44:23;1.02;;;0.90;;
11490;SDS011;5802;52.832;4.758;2022-10-04T13:47:14;1.10;;;1.00;;
11490;SDS011;5802;52.832;4.758;2022-10-04T13:49:58;1.25;;;0.98;;
11490;SDS011;5802;52.832;4.758;2022-10-04T13:52:40;1.60;;;0.98;;
11490;SDS011;5802;52.832;4.758;2022-10-04T13:55:31;1.08;;;0.98;;
11490;SDS011;5802;52.832;4.758;2022-10-04T13:58:27;1.55;;;0.90;;
11490;SDS011;5802;52.832;4.758;2022-10-04T14:01:05;1.67;;;0.98;;
11490;SDS011;5802;52.832;4.758;2022-10-04T14:03:53;1.13;;;0.90;;
11490;SDS011;5802;52.832;4.758;2022-10-04T14:09:54;1.48;;;0.90;;
11490;SDS011;5802;52.832;4.758;2022-10-04T14:12:38;1.58;;;1.10;;
11490;SDS011;5802;52.832;4.758;2022-10-04T14:15:38;2.33;;;1.15;;
11490;SDS011;5802;52.832;4.758;2022-10-04T14:18:37;1.23;;;0.90;;
11490;SDS011;5802;52.832;4.758;2022-10-04T14:21:26;1.17;;;1.08;;
11490;SDS011;5802;52.832;4.758;2022-10-04T14:27:29;1.20;;;0.93;;
11490;SDS011;5802;52.832;4.758;2022-10-04T14:30:19;1.00;;;0.90;;
11490;SDS011;5802;52.832;4.758;2022-10-04T14:36:16;1.10;;;0.80;;
11490;SDS011;5802;52.832;4.758;2022-10-04T14:39:19;0.85;;;0.80;;
11490;SDS011;5802;52.832;4.758;2022-10-04T14:42:02;2.67;;;1.10;;
11490;SDS011;5802;52.832;4.758;2022-10-04T14:44:49;1.35;;;0.80;;
11490;SDS011;5802;52.832;4.758;2022-10-04T14:50:52;1.50;;;1.00;;
11490;SDS011;5802;52.832;4.758;2022-10-04T14:53:32;0.98;;;0.90;;
11490;SDS011;5802;52.832;4.758;2022-10-04T14:59:34;1.05;;;0.95;;
11490;SDS011;5802;52.832;4.758;2022-10-04T15:02:21;1.40;;;1.10;;
11490;SDS011;5802;52.832;4.758;2022-10-04T15:05:18;1.67;;;1.33;;
11490;SDS011;5802;52.832;4.758;2022-10-04T15:08:09;0.88;;;0.88;;
11490;SDS011;5802;52.832;4.758;2022-10-04T15:10:56;2.03;;;1.00;;
11490;SDS011;5802;52.832;4.758;2022-10-04T15:13:28;1.80;;;1.17;;
11490;SDS011;5802;52.832;4.758;2022-10-04T15:16:02;5.28;;;1.88;;
11490;SDS011;5802;52.832;4.758;2022-10-04T15:18:43;1.50;;;1.00;;
11490;SDS011;5802;52.832;4.758;2022-10-04T15:21:28;4.18;;;1.30;;
11490;SDS011;5802;52.832;4.758;2022-10-04T15:24:12;4.63;;;1.38;;
11490;SDS011;5802;52.832;4.758;2022-10-04T15:26:54;1.95;;;1.30;;
11490;SDS011;5802;52.832;4.758;2022-10-04T15:29:43;1.52;;;1.20;;
11490;SDS011;5802;52.832;4.758;2022-10-04T15:32:23;1.20;;;1.10;;
11490;SDS011;5802;52.832;4.758;2022-10-04T15:34:59;2.05;;;1.30;;
11490;SDS011;5802;52.832;4.758;2022-10-04T15:37:39;1.50;;;1.30;;
11490;SDS011;5802;52.832;4.758;2022-10-04T15:40:17;1.45;;;1.30;;
11490;SDS011;5802;52.832;4.758;2022-10-04T15:43:03;2.00;;;1.20;;
11490;SDS011;5802;52.832;4.758;2022-10-04T15:45:55;1.20;;;1.05;;
11490;SDS011;5802;52.832;4.758;2022-10-04T15:48:36;1.52;;;1.35;;
11490;SDS011;5802;52.832;4.758;2022-10-04T15:51:15;3.55;;;1.52;;
11490;SDS011;5802;52.832;4.758;2022-10-04T15:54:06;2.05;;;1.35;;
11490;SDS011;5802;52.832;4.758;2022-10-04T15:56:45;3.83;;;1.35;;
11490;SDS011;5802;52.832;4.758;2022-10-04T15:59:30;1.73;;;1.20;;
11490;SDS011;5802;52.832;4.758;2022-10-04T16:05:20;1.98;;;1.50;;
11490;SDS011;5802;52.832;4.758;2022-10-04T16:11:08;2.53;;;1.42;;
11490;SDS011;5802;52.832;4.758;2022-10-04T16:14:12;2.00;;;1.30;;
11490;SDS011;5802;52.832;4.758;2022-10-04T16:16:56;3.65;;;1.50;;
11490;SDS011;5802;52.832;4.758;2022-10-04T16:19:53;2.97;;;1.65;;
11490;SDS011;5802;52.832;4.758;2022-10-04T16:22:31;4.43;;;1.65;;
11490;SDS011;5802;52.832;4.758;2022-10-04T16:28:10;3.22;;;1.25;;
11490;SDS011;5802;52.832;4.758;2022-10-04T16:31:09;4.55;;;1.50;;
11490;SDS011;5802;52.832;4.758;2022-10-04T16:33:53;3.15;;;1.33;;
11490;SDS011;5802;52.832;4.758;2022-10-04T16:36:26;2.20;;;1.67;;
11490;SDS011;5802;52.832;4.758;2022-10-04T16:39:28;3.40;;;1.50;;
11490;SDS011;5802;52.832;4.758;2022-10-04T16:42:19;2.47;;;1.67;;
11490;SDS011;5802;52.832;4.758;2022-10-04T16:44:51;2.58;;;1.30;;
11490;SDS011;5802;52.832;4.758;2022-10-04T16:47:24;3.30;;;1.50;;
11490;SDS011;5802;52.832;4.758;2022-10-04T16:49:55;2.65;;;1.40;;
11490;SDS011;5802;52.832;4.758;2022-10-04T16:52:40;1.63;;;1.40;;
11490;SDS011;5802;52.832;4.758;2022-10-04T16:55:31;3.55;;;1.45;;
11490;SDS011;5802;52.832;4.758;2022-10-04T16:58:39;2.15;;;1.52;;
11490;SDS011;5802;52.832;4.758;2022-10-04T17:04:42;3.35;;;1.50;;
11490;SDS011;5802;52.832;4.758;2022-10-04T17:07:31;2.28;;;1.33;;
11490;SDS011;5802;52.832;4.758;2022-10-04T17:10:15;2.30;;;1.30;;
11490;SDS011;5802;52.832;4.758;2022-10-04T17:12:46;3.95;;;1.70;;
11490;SDS011;5802;52.832;4.758;2022-10-04T17:15:32;2.15;;;1.55;;
11490;SDS011;5802;52.832;4.758;2022-10-04T17:18:14;3.88;;;1.80;;
11490;SDS011;5802;52.832;4.758;2022-10-04T17:20:50;3.80;;;1.60;;
11490;SDS011;5802;52.832;4.758;2022-10-04T17:23:37;2.20;;;1.52;;
11490;SDS011;5802;52.832;4.758;2022-10-04T17:26:26;2.28;;;1.50;;
11490;SDS011;5802;52.832;4.758;2022-10-04T17:29:15;2.63;;;1.60;;
11490;SDS011;5802;52.832;4.758;2022-10-04T17:31:56;2.88;;;1.52;;
11490;SDS011;5802;52.832;4.758;2022-10-04T17:34:31;1.60;;;1.38;;
11490;SDS011;5802;52.832;4.758;2022-10-04T17:37:12;2.67;;;1.50;;
11490;SDS011;5802;52.832;4.758;2022-10-04T17:39:46;3.10;;;1.45;;
11490;SDS011;5802;52.832;4.758;2022-10-04T17:42:24;2.47;;;1.40;;
11490;SDS011;5802;52.832;4.758;2022-10-04T17:47:47;2.10;;;1.40;;
11490;SDS011;5802;52.832;4.758;2022-10-04T17:50:51;3.83;;;1.77;;
11490;SDS011;5802;52.832;4.758;2022-10-04T17:53:44;3.67;;;1.50;;
11490;SDS011;5802;52.832;4.758;2022-10-04T17:56:46;3.97;;;1.48;;
11490;SDS011;5802;52.832;4.758;2022-10-04T17:59:17;2.78;;;1.48;;
11490;SDS011;5802;52.832;4.758;2022-10-04T18:01:49;3.00;;;1.40;;
11490;SDS011;5802;52.832;4.758;2022-10-04T18:04:25;2.30;;;1.30;;
11490;SDS011;5802;52.832;4.758;2022-10-04T18:06:57;4.63;;;1.40;;